Time;durP1;ratioP1;P1;durP2;ratioP2;P2;SDS_P1;SDS_P2;PMS_P1;PMS_P2;Temp;Humidity;BMP_temperature;BMP_pressure;BME280_temperature;BME280_humidity;BME280_pressure;Samples;Min_cycle;Max_cycle;Signal;HPM_P1;HPM_P2
2022/11/16 00:01:10;;;;;;;796.13;711.13;;;11.20;99.90;;;;;;4994007;28;20469;-81
2022/11/16 00:03:37;;;;;;;788.73;704.13;;;11.30;99.90;;;;;;4994584;28;20453;-79
2022/11/16 00:06:06;;;;;;;768.73;684.63;;;11.10;99.90;;;;;;4994340;28;20459;-78
2022/11/16 00:08:35;;;;;;;786.40;700.90;;;11.10;99.90;;;;;;4993639;28;20481;-79
2022/11/16 00:11:07;;;;;;;808.97;723.00;;;11.10;99.90;;;;;;4993975;28;20461;-78
2022/11/16 00:13:34;;;;;;;793.20;707.23;;;11.20;99.90;;;;;;4994738;28;20575;-78
2022/11/16 00:16:01;;;;;;;775.17;690.70;;;11.20;99.90;;;;;;4994101;28;20473;-80
2022/11/16 00:18:28;;;;;;;792.33;706.57;;;11.10;99.90;;;;;;4994377;28;20509;-78
2022/11/16 00:20:55;;;;;;;789.10;702.30;;;11.20;99.90;;;;;;4994186;28;20454;-79
2022/11/16 00:23:23;;;;;;;780.00;694.30;;;11.20;99.90;;;;;;4994340;28;20458;-79
2022/11/16 00:25:52;;;;;;;768.90;684.07;;;11.20;99.90;;;;;;5000355;28;20454;-78
2022/11/16 00:28:18;;;;;;;770.50;685.40;;;11.30;99.90;;;;;;5000171;28;21067;-79
2022/11/16 00:30:45;;;;;;;805.77;721.10;;;11.30;99.90;;;;;;4993738;28;20973;-82
2022/11/16 00:33:15;;;;;;;796.37;711.60;;;11.20;99.90;;;;;;4981406;28;21000;-79
2022/11/16 00:35:42;;;;;;;776.00;691.57;;;11.10;99.90;;;;;;4992967;28;20480;-81
2022/11/16 00:38:08;;;;;;;761.07;667.17;;;11.30;99.90;;;;;;5000461;28;20481;-79
2022/11/16 00:40:35;;;;;;;753.97;660.17;;;11.30;99.90;;;;;;4999814;28;20976;-78
2022/11/16 00:43:03;;;;;;;748.83;666.77;;;11.20;99.90;;;;;;5000692;28;20454;-82
2022/11/16 00:45:30;;;;;;;747.37;656.50;;;11.20;99.90;;;;;;5000369;28;20477;-81
2022/11/16 00:47:57;;;;;;;744.87;651.90;;;11.20;99.90;;;;;;5000129;28;20465;-79
2022/11/16 00:50:23;;;;;;;738.50;657.33;;;11.20;99.90;;;;;;5000711;28;20466;-78
2022/11/16 00:52:50;;;;;;;744.13;661.93;;;11.20;99.90;;;;;;5000273;28;20453;-78
2022/11/16 00:55:17;;;;;;;743.57;658.70;;;11.30;99.90;;;;;;5009868;28;20831;-78
2022/11/16 00:57:44;;;;;;;754.40;664.77;;;11.20;99.90;;;;;;5019651;28;21009;-78
2022/11/16 01:00:13;;;;;;;749.47;666.37;;;11.20;99.90;;;;;;5019618;28;20457;-79
2022/11/16 01:02:40;;;;;;;736.00;651.03;;;11.10;99.90;;;;;;5016689;28;20484;-79
2022/11/16 01:05:08;;;;;;;733.17;642.00;;;11.20;99.90;;;;;;5000376;28;20457;-81
2022/11/16 01:07:35;;;;;;;723.87;642.20;;;11.20;99.90;;;;;;5000092;28;20855;-78
2022/11/16 01:10:02;;;;;;;741.73;660.43;;;11.20;99.90;;;;;;5000680;28;20975;-78
2022/11/16 01:12:28;;;;;;;745.10;664.50;;;11.20;99.90;;;;;;5000128;28;20458;-79
2022/11/16 01:14:55;;;;;;;758.23;676.73;;;11.10;99.90;;;;;;5000201;28;20468;-79
2022/11/16 01:17:23;;;;;;;737.70;657.53;;;11.20;99.90;;;;;;5000424;28;20223;-81
2022/11/16 01:19:50;;;;;;;747.77;666.37;;;11.20;99.90;;;;;;4999789;28;20461;-82
2022/11/16 01:22:16;;;;;;;758.20;676.80;;;11.20;99.90;;;;;;4999550;28;20465;-79
2022/11/16 01:24:44;;;;;;;737.90;657.50;;;11.20;99.90;;;;;;4999507;28;20461;-79
2022/11/16 01:27:11;;;;;;;731.97;651.70;;;11.20;99.90;;;;;;4999229;28;20461;-79
2022/11/16 01:29:38;;;;;;;744.57;665.57;;;11.20;99.90;;;;;;4999234;28;20474;-79
2022/11/16 01:32:05;;;;;;;739.63;660.13;;;11.20;99.90;;;;;;4999090;28;20454;-80
2022/11/16 01:34:34;;;;;;;721.60;643.17;;;11.20;99.90;;;;;;4999848;28;20831;-78
2022/11/16 01:37:00;;;;;;;718.90;640.20;;;11.30;99.90;;;;;;4995897;28;20489;-78
2022/11/16 01:39:27;;;;;;;729.63;650.83;;;11.20;99.90;;;;;;4996396;28;20847;-80
2022/11/16 01:41:54;;;;;;;727.10;647.67;;;11.20;99.90;;;;;;4997205;28;20461;-78
2022/11/16 01:44:56;;;;;;;729.30;650.27;;;11.20;99.90;;;;;;4996943;28;20835;-78
2022/11/16 01:47:22;;;;;;;698.53;622.57;;;11.10;99.90;;;;;;4996830;28;20458;-79
2022/11/16 01:49:56;;;;;;;695.60;620.77;;;11.20;99.90;;;;;;4996175;28;20464;-78
2022/11/16 01:52:25;;;;;;;715.10;639.10;;;11.10;99.90;;;;;;4996535;28;20460;-79
2022/11/16 01:54:54;;;;;;;717.70;641.13;;;11.10;99.90;;;;;;4996381;28;20457;-79
2022/11/16 01:57:28;;;;;;;716.70;639.80;;;11.10;99.90;;;;;;4996032;28;20851;-78
2022/11/16 01:59:58;;;;;;;710.90;632.80;;;11.10;99.90;;;;;;4996138;28;20960;-82
2022/11/16 02:02:25;;;;;;;708.30;631.63;;;11.10;99.90;;;;;;4995815;28;20462;-79
2022/11/16 02:04:56;;;;;;;704.00;627.73;;;11.00;99.90;;;;;;4995924;28;20450;-82
2022/11/16 02:10:35;;;;;;;717.63;641.47;;;11.00;99.90;;;;;;4994388;28;20521;-79
2022/11/16 02:13:20;;;;;;;735.47;660.60;;;11.10;99.90;;;;;;4995936;28;20453;-79
2022/11/16 02:15:52;;;;;;;723.60;648.73;;;11.00;99.90;;;;;;4995816;28;20449;-81
2022/11/16 02:18:26;;;;;;;739.07;662.77;;;11.10;99.90;;;;;;4995629;28;20509;-80
2022/11/16 02:21:26;;;;;;;722.80;647.10;;;11.00;99.90;;;;;;4995200;28;20454;-81
2022/11/16 02:24:32;;;;;;;695.23;619.97;;;11.00;99.90;;;;;;4985213;28;20458;-79
2022/11/16 02:27:39;;;;;;;719.60;643.40;;;11.00;99.90;;;;;;4995427;28;20842;-82
2022/11/16 02:30:08;;;;;;;721.40;645.17;;;11.00;99.90;;;;;;4995185;28;20452;-80
2022/11/16 02:32:39;;;;;;;717.70;640.80;;;11.00;99.90;;;;;;4994899;28;20461;-80
2022/11/16 02:35:12;;;;;;;705.60;625.47;;;11.00;99.90;;;;;;4995269;28;20843;-81
2022/11/16 02:37:44;;;;;;;735.90;659.30;;;11.00;99.90;;;;;;4995219;28;20492;-80
2022/11/16 02:40:14;;;;;;;723.23;646.07;;;11.10;99.90;;;;;;4995025;28;20450;-79
2022/11/16 02:42:47;;;;;;;723.10;645.73;;;11.00;99.90;;;;;;4995221;28;20454;-79
2022/11/16 02:45:18;;;;;;;732.07;658.10;;;11.00;99.90;;;;;;4995131;28;20450;-79
2022/11/16 02:47:47;;;;;;;733.73;658.00;;;11.00;99.90;;;;;;4994815;28;20855;-80
2022/11/16 02:50:19;;;;;;;757.97;681.20;;;11.00;99.90;;;;;;4994407;28;21153;-79
2022/11/16 02:52:46;;;;;;;765.40;688.27;;;11.00;99.90;;;;;;4995162;28;20549;-79
2022/11/16 02:55:14;;;;;;;763.83;685.93;;;11.10;99.90;;;;;;4994474;28;20457;-80
2022/11/16 02:57:53;;;;;;;752.17;674.77;;;11.10;99.90;;;;;;4994464;28;20486;-80
2022/11/16 03:00:25;;;;;;;741.13;664.47;;;11.00;99.90;;;;;;4994600;28;20989;-79
2022/11/16 03:03:18;;;;;;;747.93;670.20;;;11.00;99.90;;;;;;4994619;28;20454;-80
2022/11/16 03:05:48;;;;;;;734.83;657.87;;;11.00;99.90;;;;;;4995182;28;20465;-79
2022/11/16 03:08:20;;;;;;;738.73;661.40;;;11.00;99.90;;;;;;4994464;28;20474;-80
2022/11/16 03:13:38;;;;;;;704.93;627.67;;;10.90;99.90;;;;;;4994776;28;20445;-79
2022/11/16 03:16:12;;;;;;;694.70;611.53;;;10.90;99.90;;;;;;4994233;28;20458;-80
2022/11/16 03:18:40;;;;;;;713.37;636.20;;;10.90;99.90;;;;;;4994104;28;20484;-79
2022/11/16 03:21:14;;;;;;;715.67;639.17;;;10.90;99.90;;;;;;4994010;28;20537;-80
2022/11/16 03:23:42;;;;;;;728.30;652.00;;;10.90;99.90;;;;;;4994360;28;20456;-79
2022/11/16 03:26:11;;;;;;;736.83;659.90;;;10.90;99.90;;;;;;4994473;28;20512;-81
2022/11/16 03:28:47;;;;;;;747.60;670.73;;;10.90;99.90;;;;;;4993981;28;20894;-80
2022/11/16 03:31:21;;;;;;;737.73;661.13;;;10.90;99.90;;;;;;4994197;28;20534;-80
2022/11/16 03:33:51;;;;;;;742.47;664.57;;;10.90;99.90;;;;;;4993852;28;20450;-80
2022/11/16 03:36:24;;;;;;;756.73;678.07;;;10.90;99.90;;;;;;4993642;28;20524;-80
2022/11/16 03:38:52;;;;;;;756.60;678.77;;;10.80;99.90;;;;;;4974442;28;21052;-80
2022/11/16 03:41:21;;;;;;;745.50;668.17;;;10.90;99.90;;;;;;4974404;28;20459;-80
2022/11/16 03:43:50;;;;;;;751.83;673.53;;;10.80;99.90;;;;;;4993677;28;20457;-80
2022/11/16 03:46:19;;;;;;;752.50;672.70;;;10.90;99.90;;;;;;4993798;28;20454;-80
2022/11/16 03:48:46;;;;;;;739.90;661.80;;;10.80;99.90;;;;;;4993625;28;20525;-81
2022/11/16 03:51:13;;;;;;;759.50;681.57;;;10.90;99.90;;;;;;4993735;28;20454;-79
2022/11/16 03:53:40;;;;;;;752.23;674.23;;;10.90;99.90;;;;;;4993695;28;20454;-80
2022/11/16 03:56:07;;;;;;;736.60;660.47;;;10.90;99.90;;;;;;4993835;28;20454;-79
2022/11/16 03:58:34;;;;;;;739.70;663.33;;;10.90;99.90;;;;;;4992923;28;20590;-79
2022/11/16 04:01:02;;;;;;;739.33;662.47;;;10.90;99.90;;;;;;4993001;28;20924;-79
2022/11/16 04:03:30;;;;;;;741.20;663.80;;;10.90;99.90;;;;;;4993446;28;20465;-81
2022/11/16 04:25:21;;;;;;;738.87;666.37;;;10.90;99.90;;;;;;4993733;28;20448;-82
2022/11/16 04:38:58;;;;;;;739.27;666.77;;;10.90;99.90;;;;;;4991240;28;20476;-83
2022/11/16 04:44:09;;;;;;;731.00;658.60;;;11.00;99.90;;;;;;5013340;28;20433;-79
2022/11/16 04:49:20;;;;;;;730.00;656.93;;;10.90;99.90;;;;;;4993520;28;20540;-80
2022/11/16 04:51:49;;;;;;;726.63;653.00;;;10.90;99.90;;;;;;4994599;28;20480;-80
2022/11/16 04:54:15;;;;;;;752.90;677.83;;;10.90;99.90;;;;;;4992780;28;20454;-82
2022/11/16 04:56:42;;;;;;;744.23;670.17;;;10.80;99.90;;;;;;4995175;28;20465;-81
2022/11/16 04:59:10;;;;;;;748.07;674.67;;;10.80;99.90;;;;;;5012344;28;20516;-80
2022/11/16 05:04:21;;;;;;;720.57;648.30;;;10.80;99.90;;;;;;5012253;28;20847;-80
2022/11/16 05:06:50;;;;;;;717.43;645.67;;;10.80;99.90;;;;;;5012043;28;20453;-80
2022/11/16 05:09:16;;;;;;;720.57;650.37;;;10.80;99.90;;;;;;5011694;28;20480;-81
2022/11/16 05:11:43;;;;;;;725.77;655.47;;;10.80;99.90;;;;;;5014902;28;20835;-81
2022/11/16 05:14:11;;;;;;;702.30;632.33;;;10.90;99.90;;;;;;5015779;28;20461;-81
2022/11/16 05:16:37;;;;;;;706.13;634.67;;;10.90;99.90;;;;;;5016077;28;20553;-81
2022/11/16 05:21:50;;;;;;;710.77;638.97;;;10.80;99.90;;;;;;4995974;28;20848;-80
2022/11/16 05:24:35;;;;;;;714.20;642.80;;;10.80;99.90;;;;;;4996131;28;20456;-80
2022/11/16 05:27:02;;;;;;;730.37;659.23;;;10.70;99.90;;;;;;4995823;28;20456;-81
2022/11/16 05:29:29;;;;;;;740.00;669.87;;;10.80;99.90;;;;;;4996586;28;20550;-81
2022/11/16 05:31:56;;;;;;;728.07;659.40;;;10.80;99.90;;;;;;4995424;28;20461;-81
2022/11/16 05:34:23;;;;;;;723.87;656.07;;;10.80;99.90;;;;;;4995686;28;20457;-83
2022/11/16 05:36:51;;;;;;;736.47;668.77;;;10.80;99.90;;;;;;4996121;28;20450;-83
2022/11/16 05:39:18;;;;;;;708.87;642.60;;;10.60;99.90;;;;;;4995331;28;20970;-81
2022/11/16 05:41:44;;;;;;;739.80;672.50;;;10.50;99.90;;;;;;4991216;28;20913;-81
2022/11/16 05:44:12;;;;;;;724.57;657.50;;;10.30;99.90;;;;;;4995741;28;20458;-81
2022/11/16 05:46:39;;;;;;;721.10;654.37;;;10.30;99.90;;;;;;4995680;28;20462;-83
2022/11/16 05:49:07;;;;;;;738.90;672.10;;;10.10;99.90;;;;;;4995678;28;20475;-81
2022/11/16 05:51:34;;;;;;;760.57;693.57;;;10.10;99.90;;;;;;4995400;28;20877;-80
2022/11/16 05:54:03;;;;;;;738.47;673.30;;;10.10;99.90;;;;;;4995930;28;20505;-79
2022/11/16 05:56:30;;;;;;;727.03;661.57;;;9.90;99.90;;;;;;4995901;28;20454;-81
2022/11/16 05:58:57;;;;;;;711.97;646.90;;;9.80;99.90;;;;;;4995594;28;20478;-82
2022/11/16 06:01:24;;;;;;;710.30;645.17;;;9.70;99.90;;;;;;4995376;28;20450;-81
2022/11/16 06:03:51;;;;;;;721.90;655.33;;;9.60;99.90;;;;;;4995707;28;20457;-80
2022/11/16 06:06:18;;;;;;;777.50;706.77;;;9.60;99.90;;;;;;4995701;28;20455;-81
2022/11/16 06:08:45;;;;;;;797.50;726.93;;;9.60;99.90;;;;;;4995606;28;20470;-81
2022/11/16 06:11:13;;;;;;;801.83;731.67;;;9.40;99.90;;;;;;4995070;28;20454;-83
2022/11/16 06:13:40;;;;;;;781.33;709.40;;;9.40;99.90;;;;;;4995353;28;20987;-82
2022/11/16 06:16:07;;;;;;;763.07;690.43;;;9.40;99.90;;;;;;4995250;28;20446;-81
2022/11/16 06:18:37;;;;;;;770.13;698.33;;;9.40;99.90;;;;;;4994933;28;20480;-81
2022/11/16 06:21:04;;;;;;;767.13;695.47;;;9.50;99.90;;;;;;4997215;28;20485;-81
2022/11/16 06:23:31;;;;;;;757.93;687.23;;;9.30;99.90;;;;;;4996917;28;20458;-82
2022/11/16 06:25:58;;;;;;;752.30;681.27;;;9.10;99.90;;;;;;4997870;28;20451;-84
2022/11/16 06:28:26;;;;;;;760.33;688.63;;;9.20;99.90;;;;;;4997163;28;20470;-82
2022/11/16 06:30:53;;;;;;;745.80;675.70;;;9.00;99.90;;;;;;4993420;28;20451;-83
2022/11/16 06:33:20;;;;;;;750.00;679.60;;;9.00;99.90;;;;;;4991648;28;20453;-82
2022/11/16 06:35:49;;;;;;;747.70;677.10;;;8.90;99.90;;;;;;4996708;28;20461;-82
2022/11/16 06:38:18;;;;;;;745.77;675.00;;;8.90;99.90;;;;;;4996953;28;20474;-82
2022/11/16 06:40:45;;;;;;;753.00;681.67;;;8.90;99.90;;;;;;4997516;28;20493;-82
2022/11/16 06:43:12;;;;;;;743.87;672.17;;;8.90;99.90;;;;;;5011170;28;20456;-81
2022/11/16 06:45:42;;;;;;;736.73;664.77;;;8.90;99.90;;;;;;5017129;28;20472;-82
2022/11/16 06:48:09;;;;;;;746.03;674.33;;;8.80;99.90;;;;;;4998555;28;20547;-82
2022/11/16 06:50:36;;;;;;;743.57;672.17;;;9.00;99.90;;;;;;4997662;28;20492;-83
2022/11/16 06:53:05;;;;;;;739.73;668.87;;;9.00;99.90;;;;;;4997570;28;20462;-82
2022/11/16 06:55:34;;;;;;;735.50;663.27;;;9.00;99.90;;;;;;4997139;28;20451;-83
2022/11/16 06:58:01;;;;;;;727.30;656.30;;;9.00;99.90;;;;;;4996434;28;20515;-82
2022/11/16 07:00:29;;;;;;;753.97;684.77;;;9.10;99.90;;;;;;4996269;28;20976;-82
2022/11/16 07:02:58;;;;;;;751.00;683.20;;;9.00;99.90;;;;;;4993033;28;20454;-81
2022/11/16 07:05:25;;;;;;;767.07;698.37;;;8.90;99.90;;;;;;4995710;28;20482;-83
2022/11/16 07:07:59;;;;;;;772.40;704.10;;;8.80;99.90;;;;;;4996761;28;20466;-83
2022/11/16 07:10:31;;;;;;;779.93;711.37;;;8.80;99.90;;;;;;4996428;28;20446;-82
2022/11/16 07:13:01;;;;;;;770.43;703.23;;;8.60;99.90;;;;;;4998047;28;20450;-83
2022/11/16 07:15:28;;;;;;;750.43;682.63;;;8.50;99.90;;;;;;4996864;28;20878;-82
2022/11/16 07:17:54;;;;;;;752.63;685.03;;;8.50;99.90;;;;;;4995790;28;20470;-83
2022/11/16 07:20:23;;;;;;;741.87;675.40;;;8.50;99.90;;;;;;4992099;28;20995;-83
2022/11/16 07:22:49;;;;;;;730.27;664.33;;;8.60;99.90;;;;;;4996303;28;20450;-82
2022/11/16 07:25:16;;;;;;;721.67;656.50;;;8.60;99.90;;;;;;4995391;28;20454;-83
2022/11/16 07:27:43;;;;;;;725.03;659.97;;;8.60;99.90;;;;;;4995408;28;20481;-82
2022/11/16 07:30:14;;;;;;;713.37;649.20;;;8.60;99.90;;;;;;4995620;28;20484;-83
2022/11/16 07:32:44;;;;;;;714.67;650.77;;;8.40;99.90;;;;;;4994954;28;20480;-82
2022/11/16 07:35:11;;;;;;;714.57;649.83;;;8.40;99.90;;;;;;4994531;28;20509;-83
2022/11/16 07:37:39;;;;;;;718.47;653.37;;;8.50;99.90;;;;;;4996071;28;20474;-82
2022/11/16 07:40:07;;;;;;;723.67;657.10;;;8.40;99.90;;;;;;4995520;28;20482;-83
2022/11/16 07:42:37;;;;;;;726.83;659.83;;;8.40;99.90;;;;;;4997084;28;20458;-82
2022/11/16 07:45:06;;;;;;;715.60;648.50;;;8.50;99.90;;;;;;4997186;28;20512;-84
2022/11/16 07:47:36;;;;;;;724.77;658.87;;;8.50;99.90;;;;;;4996414;28;20454;-84
2022/11/16 07:50:04;;;;;;;736.43;669.60;;;8.70;99.90;;;;;;4996505;28;20450;-85
2022/11/16 07:52:31;;;;;;;730.20;665.57;;;8.60;99.90;;;;;;4989619;28;20457;-84
2022/11/16 07:55:00;;;;;;;720.27;655.83;;;8.80;99.90;;;;;;4996020;28;20458;-85
2022/11/16 07:57:28;;;;;;;727.23;664.17;;;8.70;99.90;;;;;;4996084;28;20485;-84
2022/11/16 07:59:55;;;;;;;731.70;669.17;;;8.70;99.90;;;;;;4995692;28;20520;-84
2022/11/16 08:02:22;;;;;;;728.80;668.60;;;8.80;99.90;;;;;;4995230;28;20961;-85
2022/11/16 08:04:49;;;;;;;721.40;662.13;;;9.00;99.90;;;;;;4996337;28;20510;-84
2022/11/16 08:07:16;;;;;;;709.80;653.00;;;9.00;99.90;;;;;;4996379;28;20462;-84
2022/11/16 08:09:42;;;;;;;703.67;648.17;;;9.00;99.90;;;;;;4994596;28;20512;-84
2022/11/16 08:12:13;;;;;;;691.87;636.93;;;9.00;99.90;;;;;;4993761;28;20458;-82
2022/11/16 08:14:45;;;;;;;683.40;629.67;;;9.00;99.90;;;;;;5009488;28;20456;-84
2022/11/16 08:17:14;;;;;;;695.60;642.40;;;8.80;99.90;;;;;;5014574;28;20465;-84
2022/11/16 08:19:43;;;;;;;694.67;641.67;;;8.80;99.90;;;;;;4988378;28;20510;-85
2022/11/16 08:22:11;;;;;;;694.50;640.70;;;8.70;99.90;;;;;;4978227;28;20466;-84
2022/11/16 08:24:41;;;;;;;686.13;631.73;;;8.70;99.90;;;;;;4997258;28;20454;-84
2022/11/16 08:27:14;;;;;;;690.30;636.60;;;8.70;99.90;;;;;;4996919;28;20450;-85
2022/11/16 08:29:42;;;;;;;691.70;637.40;;;8.70;99.90;;;;;;4997336;28;20478;-84
2022/11/16 08:32:09;;;;;;;679.47;626.80;;;8.80;99.90;;;;;;4996867;28;20458;-86
2022/11/16 08:34:36;;;;;;;685.30;634.47;;;8.90;99.90;;;;;;4997093;28;20502;-84
2022/11/16 08:37:02;;;;;;;669.90;622.10;;;9.00;99.90;;;;;;4997237;28;20454;-84
2022/11/16 08:39:29;;;;;;;651.37;605.40;;;9.00;99.90;;;;;;4997803;28;20485;-84
2022/11/16 08:41:56;;;;;;;665.83;619.33;;;9.20;99.90;;;;;;4996586;28;20520;-84
2022/11/16 08:44:23;;;;;;;663.27;616.60;;;9.40;99.90;;;;;;4996368;28;20908;-85
2022/11/16 08:46:51;;;;;;;636.20;594.37;;;9.70;99.90;;;;;;4999630;28;20454;-84
2022/11/16 08:49:17;;;;;;;619.30;584.40;;;10.00;99.90;;;;;;5000707;28;20857;-84
2022/11/16 08:51:44;;;;;;;625.53;591.93;;;10.10;99.90;;;;;;5000601;28;20465;-85
2022/11/16 08:54:11;;;;;;;572.07;543.47;;;10.30;99.90;;;;;;5001053;28;20457;-84
2022/11/16 08:56:38;;;;;;;439.13;418.13;;;10.30;99.90;;;;;;5001026;28;20540;-83
2022/11/16 08:59:04;;;;;;;451.07;429.87;;;10.40;99.90;;;;;;5001076;28;20504;-85
2022/11/16 09:01:32;;;;;;;356.70;340.13;;;10.50;99.90;;;;;;5000812;28;20979;-84
2022/11/16 09:04:07;;;;;;;177.83;170.03;;;10.50;99.90;;;;;;5001348;28;20488;-85
2022/11/16 09:06:36;;;;;;;173.43;166.10;;;10.40;99.90;;;;;;5001669;28;20552;-84
2022/11/16 09:09:03;;;;;;;91.77;87.47;;;10.40;99.90;;;;;;5001586;28;20565;-83
2022/11/16 09:11:30;;;;;;;101.53;96.73;;;10.40;99.90;;;;;;5001391;28;20458;-84
2022/11/16 09:13:57;;;;;;;127.30;121.60;;;10.20;99.90;;;;;;5001680;28;20457;-84
2022/11/16 09:16:26;;;;;;;234.00;224.83;;;10.20;99.90;;;;;;5000978;28;20831;-82
2022/11/16 09:18:54;;;;;;;83.67;79.60;;;10.20;99.90;;;;;;5000103;28;20490;-84
2022/11/16 09:21:26;;;;;;;92.50;88.70;;;10.30;99.90;;;;;;5001240;28;20461;-84
2022/11/16 09:23:54;;;;;;;57.83;55.03;;;10.40;99.90;;;;;;5001222;28;21003;-83
2022/11/16 09:26:25;;;;;;;53.70;51.00;;;10.40;99.90;;;;;;5002167;28;20972;-84
2022/11/16 09:28:55;;;;;;;73.60;70.67;;;10.60;99.90;;;;;;5001237;28;20661;-83
2022/11/16 09:31:22;;;;;;;63.50;60.73;;;10.70;99.90;;;;;;5000947;28;20446;-83
2022/11/16 09:33:49;;;;;;;47.27;44.47;;;10.80;99.90;;;;;;5002094;28;20465;-84
2022/11/16 09:36:16;;;;;;;50.03;47.07;;;10.80;99.90;;;;;;5001159;28;20457;-84
2022/11/16 09:38:45;;;;;;;26.97;25.17;;;10.80;99.90;;;;;;5001513;28;20560;-85
2022/11/16 09:41:25;;;;;;;15.67;14.33;;;10.80;99.90;;;;;;5001283;28;20484;-83
2022/11/16 09:44:02;;;;;;;19.03;17.53;;;10.70;99.90;;;;;;5000860;28;20464;-84
2022/11/16 09:46:33;;;;;;;22.57;20.53;;;10.90;99.90;;;;;;5002247;28;20813;-84
2022/11/16 09:49:05;;;;;;;15.07;6.27;;;10.90;99.90;;;;;;5001850;28;20581;-84
2022/11/16 09:51:35;;;;;;;11.97;10.93;;;11.20;99.90;;;;;;5001429;28;20457;-84
2022/11/16 09:54:07;;;;;;;9.10;6.03;;;11.30;99.90;;;;;;5002578;28;20508;-83
2022/11/16 09:56:40;;;;;;;11.90;6.63;;;11.40;99.90;;;;;;5001927;28;20458;-84
2022/11/16 09:59:17;;;;;;;10.83;5.83;;;11.50;99.90;;;;;;5000832;28;20489;-84
2022/11/16 10:01:49;;;;;;;16.13;4.90;;;11.70;99.90;;;;;;5001147;28;20461;-86
2022/11/16 10:04:19;;;;;;;9.90;5.20;;;11.90;99.90;;;;;;5002091;28;20454;-85
2022/11/16 10:06:52;;;;;;;8.30;3.50;;;12.10;99.90;;;;;;4999585;28;20450;-86
2022/11/16 10:09:21;;;;;;;5.37;2.00;;;12.20;99.90;;;;;;4999935;28;20477;-86
2022/11/16 10:12:10;;;;;;;8.03;2.90;;;12.20;99.90;;;;;;5000025;28;20454;-84
2022/11/16 10:15:03;;;;;;;17.57;4.00;;;12.30;99.90;;;;;;5002014;28;20995;-84
2022/11/16 10:17:42;;;;;;;12.93;2.37;;;12.40;99.90;;;;;;4981275;28;20527;-85
2022/11/16 10:20:25;;;;;;;8.33;2.37;;;12.50;99.90;;;;;;4981307;28;20472;-86
2022/11/16 10:23:02;;;;;;;9.00;2.00;;;13.00;99.90;;;;;;4981622;28;20451;-85
2022/11/16 10:25:36;;;;;;;5.47;1.73;;;13.20;99.90;;;;;;4982038;28;20458;-85
2022/11/16 10:28:42;;;;;;;8.10;1.73;;;13.30;99.00;;;;;;4980352;28;20489;-85
2022/11/16 10:31:19;;;;;;;7.10;2.00;;;13.20;99.90;;;;;;4978983;28;20458;-85
2022/11/16 10:33:49;;;;;;;5.70;2.03;;;13.20;99.70;;;;;;4981295;28;20446;-85
2022/11/16 10:36:17;;;;;;;12.70;2.20;;;12.90;98.80;;;;;;4980332;28;20480;-85
2022/11/16 10:38:44;;;;;;;10.97;1.77;;;12.70;98.70;;;;;;4981551;28;20471;-84
2022/11/16 10:41:19;;;;;;;5.40;1.70;;;12.70;97.90;;;;;;4980964;28;20487;-85
2022/11/16 10:43:48;;;;;;;7.73;1.80;;;12.60;98.70;;;;;;4981013;28;20458;-85
2022/11/16 10:46:20;;;;;;;10.67;2.13;;;12.50;98.60;;;;;;4981813;28;20518;-85
2022/11/16 10:48:58;;;;;;;8.13;1.73;;;12.50;98.70;;;;;;4981320;28;20475;-84
2022/11/16 10:51:25;;;;;;;8.33;2.10;;;12.50;99.50;;;;;;4980364;28;20538;-85
2022/11/16 10:53:54;;;;;;;7.93;2.03;;;12.50;99.30;;;;;;4981108;28;20461;-85
2022/11/16 10:56:27;;;;;;;7.20;1.50;;;12.50;99.60;;;;;;4981720;28;20845;-85
2022/11/16 10:58:59;;;;;;;6.97;1.83;;;12.50;99.30;;;;;;4981011;28;20489;-85
2022/11/16 11:01:32;;;;;;;6.57;1.67;;;12.60;99.70;;;;;;4981184;28;20479;-84
2022/11/16 11:04:15;;;;;;;6.37;1.80;;;12.50;98.70;;;;;;4981498;28;20451;-85
2022/11/16 11:06:42;;;;;;;9.60;1.80;;;12.70;99.90;;;;;;4981955;28;20466;-85
2022/11/16 11:09:26;;;;;;;6.33;1.40;;;12.70;98.40;;;;;;4980259;28;20506;-85
2022/11/16 11:15:03;;;;;;;6.93;2.70;;;12.80;98.90;;;;;;4998835;28;20990;-85
2022/11/16 11:17:31;;;;;;;11.20;2.33;;;13.00;98.10;;;;;;4999486;28;20480;-87
2022/11/16 11:20:00;;;;;;;8.63;1.63;;;13.60;96.60;;;;;;5000364;28;20524;-86
2022/11/16 11:22:27;;;;;;;8.60;1.43;;;14.30;95.10;;;;;;4999035;28;20455;-85
2022/11/16 11:24:54;;;;;;;5.67;1.70;;;14.80;92.90;;;;;;5000147;28;20601;-85
2022/11/16 11:27:26;;;;;;;5.80;1.33;;;15.20;92.60;;;;;;4998329;28;20461;-86
2022/11/16 11:29:57;;;;;;;6.77;1.40;;;15.80;91.60;;;;;;4999694;28;20451;-86
2022/11/16 11:32:30;;;;;;;7.27;1.90;;;16.00;90.00;;;;;;5000541;28;20879;-86
2022/11/16 11:34:58;;;;;;;7.53;1.77;;;16.10;88.30;;;;;;4999405;28;20459;-86
2022/11/16 11:37:29;;;;;;;12.30;1.40;;;16.70;86.40;;;;;;4998519;28;20459;-87
2022/11/16 11:40:18;;;;;;;8.93;1.57;;;16.90;80.90;;;;;;4999474;28;20570;-85
2022/11/16 11:42:55;;;;;;;6.63;1.70;;;17.20;80.20;;;;;;4971227;28;20455;-85
2022/11/16 11:45:32;;;;;;;9.10;2.30;;;17.20;78.60;;;;;;4999005;28;20450;-87
2022/11/16 11:48:01;;;;;;;8.30;1.40;;;17.30;78.00;;;;;;4998472;28;20475;-86
2022/11/16 11:50:52;;;;;;;7.03;1.40;;;17.70;76.10;;;;;;4998966;28;20447;-86
2022/11/16 11:53:34;;;;;;;6.47;1.70;;;18.00;75.00;;;;;;4994940;28;20807;-86
2022/11/16 11:56:01;;;;;;;17.20;1.70;;;17.80;75.00;;;;;;4997486;28;20461;-86
2022/11/16 11:58:32;;;;;;;6.90;1.23;;;18.30;75.10;;;;;;4997923;28;21015;-85
2022/11/16 12:01:17;;;;;;;9.87;1.80;;;18.40;70.70;;;;;;4997588;28;20488;-86
2022/11/16 12:04:19;;;;;;;8.47;1.73;;;18.60;69.20;;;;;;4998428;28;20512;-87
2022/11/16 12:06:52;;;;;;;10.03;1.30;;;18.60;68.90;;;;;;4974186;28;20464;-86
2022/11/16 12:09:32;;;;;;;6.53;1.07;;;19.00;67.00;;;;;;4999486;28;20489;-86
2022/11/16 12:12:13;;;;;;;10.73;1.50;;;19.10;66.80;;;;;;4999911;28;20456;-88
2022/11/16 12:15:02;;;;;;;6.97;2.37;;;19.30;65.90;;;;;;4998208;28;20457;-86
2022/11/16 12:17:41;;;;;;;10.30;1.37;;;19.70;64.10;;;;;;4999678;28;20450;-85
2022/11/16 12:20:28;;;;;;;11.50;2.50;;;19.40;60.60;;;;;;4980004;28;20485;-86
2022/11/16 12:23:17;;;;;;;6.30;1.30;;;18.70;60.70;;;;;;4988495;28;20471;-86
2022/11/16 12:25:52;;;;;;;8.43;1.20;;;17.70;68.00;;;;;;4998970;28;20468;-86
2022/11/16 12:28:35;;;;;;;6.00;1.53;;;16.90;70.50;;;;;;4998106;28;20471;-86
2022/11/16 12:31:23;;;;;;;10.17;1.70;;;16.30;76.30;;;;;;4999352;28;21038;-85
2022/11/16 12:33:58;;;;;;;10.97;1.77;;;15.80;74.30;;;;;;4997955;28;20457;-85
2022/11/16 12:36:36;;;;;;;5.60;1.27;;;15.30;76.80;;;;;;4999162;28;20462;-86
2022/11/16 12:39:15;;;;;;;5.13;1.10;;;15.20;79.00;;;;;;4999849;28;20510;-85
2022/11/16 12:42:00;;;;;;;5.77;1.00;;;15.00;79.40;;;;;;4998771;28;20481;-87
2022/11/16 12:44:39;;;;;;;12.27;1.80;;;15.10;81.60;;;;;;4980725;28;20877;-85
2022/11/16 12:47:17;;;;;;;5.70;1.10;;;15.20;83.00;;;;;;4981129;28;20461;-86
2022/11/16 12:50:18;;;;;;;7.33;1.97;;;15.10;78.30;;;;;;4997521;28;20457;-84
2022/11/16 12:53:06;;;;;;;5.97;1.13;;;14.90;78.10;;;;;;4993996;28;20464;-85
2022/11/16 12:55:41;;;;;;;6.67;1.20;;;14.80;83.40;;;;;;4998029;28;20461;-85
2022/11/16 12:58:19;;;;;;;5.87;1.30;;;14.70;82.60;;;;;;4996994;28;20480;-87
2022/11/16 13:00:54;;;;;;;7.07;1.97;;;14.70;82.70;;;;;;4996760;28;20491;-86
2022/11/16 13:03:29;;;;;;;9.50;2.10;;;15.00;81.50;;;;;;4997131;28;20467;-86
2022/11/16 13:05:59;;;;;;;7.93;1.93;;;15.50;79.30;;;;;;4996545;28;20678;-86
2022/11/16 13:08:47;;;;;;;5.93;1.30;;;16.00;80.10;;;;;;4995462;28;21084;-85
2022/11/16 13:11:18;;;;;;;7.53;2.17;;;15.90;78.40;;;;;;4997771;28;20516;-84
2022/11/16 13:13:56;;;;;;;4.87;1.20;;;15.70;80.50;;;;;;4994569;28;20465;-84
2022/11/16 13:16:24;;;;;;;10.00;1.63;;;15.50;81.40;;;;;;4996544;28;20463;-85
2022/11/16 13:18:58;;;;;;;4.27;1.10;;;15.40;81.90;;;;;;5003261;23;20525;-85
2022/11/16 13:21:34;;;;;;;5.97;1.40;;;15.30;81.80;;;;;;4998837;28;20465;-86
2022/11/16 13:24:23;;;;;;;4.90;1.43;;;15.00;81.50;;;;;;4997448;28;20545;-86
2022/11/16 13:26:59;;;;;;;8.20;1.33;;;14.70;82.70;;;;;;4998147;28;20566;-85
2022/11/16 13:29:36;;;;;;;6.00;1.30;;;14.40;83.50;;;;;;4997160;28;20511;-85
2022/11/16 13:32:08;;;;;;;7.43;1.20;;;14.20;83.90;;;;;;4997870;28;20455;-86